sensor_id;sensor_type;location;lat;lon;timestamp;P1;durP1;ratioP1;P2;durP2;ratioP2
1054;SDS011;516;51.482;7.120;2023-06-14T00:00:01;22.57;;;21.27;;
1054;SDS011;516;51.482;7.120;2023-06-14T00:05:51;21.57;;;20.07;;
1054;SDS011;516;51.482;7.120;2023-06-14T00:11:39;22.40;;;20.90;;
1054;SDS011;516;51.482;7.120;2023-06-14T00:17:28;22.97;;;21.50;;
1054;SDS011;516;51.482;7.120;2023-06-14T00:23:18;23.00;;;21.70;;
1054;SDS011;516;51.482;7.120;2023-06-14T00:29:06;23.23;;;21.90;;
1054;SDS011;516;51.482;7.120;2023-06-14T00:44:07;21.83;;;20.63;;
1054;SDS011;516;51.482;7.120;2023-06-14T00:49:55;23.27;;;21.60;;
1054;SDS011;516;51.482;7.120;2023-06-14T00:55:43;22.20;;;20.87;;
1054;SDS011;516;51.482;7.120;2023-06-14T01:01:31;20.63;;;19.13;;
1054;SDS011;516;51.482;7.120;2023-06-14T01:13:33;21.40;;;20.20;;
1054;SDS011;516;51.482;7.120;2023-06-14T01:19:25;20.17;;;18.87;;
1054;SDS011;516;51.482;7.120;2023-06-14T01:25:15;19.83;;;18.70;;
1054;SDS011;516;51.482;7.120;2023-06-14T01:31:03;21.77;;;20.53;;
1054;SDS011;516;51.482;7.120;2023-06-14T01:40:17;20.67;;;19.20;;
1054;SDS011;516;51.482;7.120;2023-06-14T01:46:06;20.70;;;19.50;;
1054;SDS011;516;51.482;7.120;2023-06-14T01:51:56;21.60;;;20.20;;
1054;SDS011;516;51.482;7.120;2023-06-14T01:57:43;21.60;;;20.40;;
1054;SDS011;516;51.482;7.120;2023-06-14T02:03:31;21.70;;;20.40;;
1054;SDS011;516;51.482;7.120;2023-06-14T02:09:19;24.73;;;22.83;;
1054;SDS011;516;51.482;7.120;2023-06-14T02:15:08;21.43;;;19.90;;
1054;SDS011;516;51.482;7.120;2023-06-14T02:20:56;20.60;;;19.30;;
1054;SDS011;516;51.482;7.120;2023-06-14T02:26:44;20.13;;;18.80;;
1054;SDS011;516;51.482;7.120;2023-06-14T02:32:32;20.90;;;19.80;;
1054;SDS011;516;51.482;7.120;2023-06-14T02:38:02;19.93;;;18.83;;
1054;SDS011;516;51.482;7.120;2023-06-14T02:43:50;19.53;;;18.23;;
1054;SDS011;516;51.482;7.120;2023-06-14T02:49:38;19.80;;;18.43;;
1054;SDS011;516;51.482;7.120;2023-06-14T02:55:25;20.10;;;18.90;;
1054;SDS011;516;51.482;7.120;2023-06-14T03:01:13;20.37;;;19.07;;
1054;SDS011;516;51.482;7.120;2023-06-14T03:07:01;19.77;;;18.67;;
1054;SDS011;516;51.482;7.120;2023-06-14T03:12:50;18.83;;;17.87;;
1054;SDS011;516;51.482;7.120;2023-06-14T03:18:39;19.23;;;17.70;;
1054;SDS011;516;51.482;7.120;2023-06-14T03:24:26;19.60;;;18.47;;
1054;SDS011;516;51.482;7.120;2023-06-14T03:30:14;21.10;;;19.90;;
1054;SDS011;516;51.482;7.120;2023-06-14T03:45:53;19.87;;;18.67;;
1054;SDS011;516;51.482;7.120;2023-06-14T03:51:41;20.90;;;19.47;;
1054;SDS011;516;51.482;7.120;2023-06-14T03:57:29;19.10;;;18.00;;
1054;SDS011;516;51.482;7.120;2023-06-14T04:03:17;20.40;;;19.40;;
1054;SDS011;516;51.482;7.120;2023-06-14T04:09:06;18.10;;;16.73;;
1054;SDS011;516;51.482;7.120;2023-06-14T04:14:54;19.80;;;18.57;;
1054;SDS011;516;51.482;7.120;2023-06-14T04:20:42;20.10;;;18.87;;
1054;SDS011;516;51.482;7.120;2023-06-14T04:26:30;21.30;;;20.17;;
1054;SDS011;516;51.482;7.120;2023-06-14T04:32:20;20.27;;;18.87;;
1054;SDS011;516;51.482;7.120;2023-06-14T04:38:03;19.53;;;18.33;;
1054;SDS011;516;51.482;7.120;2023-06-14T04:43:52;20.53;;;19.43;;
1054;SDS011;516;51.482;7.120;2023-06-14T04:49:40;20.83;;;19.23;;
1054;SDS011;516;51.482;7.120;2023-06-14T04:55:27;20.50;;;19.10;;
1054;SDS011;516;51.482;7.120;2023-06-14T05:01:15;20.80;;;19.70;;
1054;SDS011;516;51.482;7.120;2023-06-14T05:07:03;20.13;;;19.13;;
1054;SDS011;516;51.482;7.120;2023-06-14T05:12:51;19.23;;;18.23;;
1054;SDS011;516;51.482;7.120;2023-06-14T05:18:39;20.83;;;19.77;;
1054;SDS011;516;51.482;7.120;2023-06-14T05:24:28;21.20;;;20.10;;
1054;SDS011;516;51.482;7.120;2023-06-14T05:30:19;20.33;;;19.23;;
1054;SDS011;516;51.482;7.120;2023-06-14T05:46:33;21.33;;;20.23;;
1054;SDS011;516;51.482;7.120;2023-06-14T05:52:20;21.17;;;19.70;;
1054;SDS011;516;51.482;7.120;2023-06-14T05:58:07;18.50;;;17.40;;
1054;SDS011;516;51.482;7.120;2023-06-14T06:03:54;20.10;;;19.10;;
1054;SDS011;516;51.482;7.120;2023-06-14T06:09:42;20.87;;;19.47;;
1054;SDS011;516;51.482;7.120;2023-06-14T06:15:29;21.57;;;20.27;;
1054;SDS011;516;51.482;7.120;2023-06-14T06:21:17;18.83;;;17.63;;
1054;SDS011;516;51.482;7.120;2023-06-14T06:27:05;19.07;;;18.07;;
1054;SDS011;516;51.482;7.120;2023-06-14T06:32:55;18.60;;;17.60;;
1054;SDS011;516;51.482;7.120;2023-06-14T06:35:38;18.80;;;17.63;;
1054;SDS011;516;51.482;7.120;2023-06-14T06:38:03;18.07;;;16.97;;
1054;SDS011;516;51.482;7.120;2023-06-14T06:43:51;18.70;;;17.43;;
1054;SDS011;516;51.482;7.120;2023-06-14T06:49:39;18.33;;;17.23;;
1054;SDS011;516;51.482;7.120;2023-06-14T06:55:26;18.80;;;18.00;;
1054;SDS011;516;51.482;7.120;2023-06-14T07:01:14;18.13;;;17.23;;
1054;SDS011;516;51.482;7.120;2023-06-14T07:07:02;19.47;;;18.37;;
1054;SDS011;516;51.482;7.120;2023-06-14T07:12:50;18.30;;;17.40;;
1054;SDS011;516;51.482;7.120;2023-06-14T07:18:38;18.07;;;16.83;;
1054;SDS011;516;51.482;7.120;2023-06-14T07:24:26;17.50;;;16.70;;
1054;SDS011;516;51.482;7.120;2023-06-14T07:30:15;16.73;;;16.00;;
1054;SDS011;516;51.482;7.120;2023-06-14T07:42:28;17.47;;;16.67;;
1054;SDS011;516;51.482;7.120;2023-06-14T07:48:16;17.03;;;16.33;;
1054;SDS011;516;51.482;7.120;2023-06-14T07:54:04;17.23;;;16.20;;
1054;SDS011;516;51.482;7.120;2023-06-14T07:59:54;17.93;;;17.03;;
1054;SDS011;516;51.482;7.120;2023-06-14T08:05:41;17.80;;;17.00;;
1054;SDS011;516;51.482;7.120;2023-06-14T08:11:29;17.13;;;16.23;;
1054;SDS011;516;51.482;7.120;2023-06-14T08:17:17;17.50;;;16.70;;
1054;SDS011;516;51.482;7.120;2023-06-14T08:23:04;17.63;;;16.73;;
1054;SDS011;516;51.482;7.120;2023-06-14T08:28:52;15.33;;;14.73;;
1054;SDS011;516;51.482;7.120;2023-06-14T08:34:40;17.57;;;16.50;;
1054;SDS011;516;51.482;7.120;2023-06-14T08:40:28;16.47;;;15.77;;
1054;SDS011;516;51.482;7.120;2023-06-14T08:49:41;16.90;;;16.10;;
1054;SDS011;516;51.482;7.120;2023-06-14T08:55:34;16.77;;;16.00;;
1054;SDS011;516;51.482;7.120;2023-06-14T09:01:25;17.53;;;16.53;;
1054;SDS011;516;51.482;7.120;2023-06-14T09:07:13;16.60;;;15.80;;
1054;SDS011;516;51.482;7.120;2023-06-14T09:13:01;16.30;;;15.60;;
1054;SDS011;516;51.482;7.120;2023-06-14T09:18:50;15.87;;;15.17;;
1054;SDS011;516;51.482;7.120;2023-06-14T09:24:37;15.87;;;15.10;;
1054;SDS011;516;51.482;7.120;2023-06-14T09:30:25;17.13;;;16.00;;
1054;SDS011;516;51.482;7.120;2023-06-14T09:36:17;15.67;;;14.97;;
1054;SDS011;516;51.482;7.120;2023-06-14T09:41:50;16.27;;;15.30;;
1054;SDS011;516;51.482;7.120;2023-06-14T09:47:38;15.40;;;14.80;;
1054;SDS011;516;51.482;7.120;2023-06-14T09:53:26;16.50;;;15.80;;
1054;SDS011;516;51.482;7.120;2023-06-14T09:59:19;17.00;;;16.30;;
1054;SDS011;516;51.482;7.120;2023-06-14T10:05:09;16.87;;;16.10;;
1054;SDS011;516;51.482;7.120;2023-06-14T10:10:59;16.80;;;16.00;;
1054;SDS011;516;51.482;7.120;2023-06-14T10:17:00;17.43;;;16.53;;
1054;SDS011;516;51.482;7.120;2023-06-14T10:23:26;17.17;;;16.27;;
1054;SDS011;516;51.482;7.120;2023-06-14T10:29:16;17.27;;;16.43;;
1054;SDS011;516;51.482;7.120;2023-06-14T10:35:07;17.73;;;16.93;;
1054;SDS011;516;51.482;7.120;2023-06-14T10:50:08;16.90;;;16.10;;
1054;SDS011;516;51.482;7.120;2023-06-14T10:56:01;17.80;;;17.00;;
1054;SDS011;516;51.482;7.120;2023-06-14T11:02:50;16.40;;;15.60;;
1054;SDS011;516;51.482;7.120;2023-06-14T11:09:07;16.90;;;16.10;;
1054;SDS011;516;51.482;7.120;2023-06-14T11:15:36;17.27;;;16.47;;
1054;SDS011;516;51.482;7.120;2023-06-14T11:21:25;16.63;;;15.93;;
1054;SDS011;516;51.482;7.120;2023-06-14T11:27:17;17.33;;;16.43;;
1054;SDS011;516;51.482;7.120;2023-06-14T11:33:09;16.60;;;15.80;;
1054;SDS011;516;51.482;7.120;2023-06-14T11:39:01;16.63;;;15.87;;
1054;SDS011;516;51.482;7.120;2023-06-14T11:44:50;16.97;;;16.07;;
1054;SDS011;516;51.482;7.120;2023-06-14T11:50:38;20.63;;;17.10;;
1054;SDS011;516;51.482;7.120;2023-06-14T11:56:26;18.03;;;17.23;;
1054;SDS011;516;51.482;7.120;2023-06-14T12:02:14;18.23;;;17.10;;
1054;SDS011;516;51.482;7.120;2023-06-14T12:08:02;17.77;;;16.97;;
1054;SDS011;516;51.482;7.120;2023-06-14T12:13:53;18.40;;;17.10;;
1054;SDS011;516;51.482;7.120;2023-06-14T12:19:41;19.37;;;18.10;;
1054;SDS011;516;51.482;7.120;2023-06-14T12:25:34;19.10;;;17.77;;
1054;SDS011;516;51.482;7.120;2023-06-14T12:31:23;15.63;;;14.93;;
1054;SDS011;516;51.482;7.120;2023-06-14T12:37:11;16.60;;;15.90;;
1054;SDS011;516;51.482;7.120;2023-06-14T12:46:21;16.33;;;15.53;;
1054;SDS011;516;51.482;7.120;2023-06-14T12:52:09;17.40;;;16.60;;
1054;SDS011;516;51.482;7.120;2023-06-14T12:57:57;17.27;;;16.47;;
1054;SDS011;516;51.482;7.120;2023-06-14T13:03:45;17.53;;;16.40;;
1054;SDS011;516;51.482;7.120;2023-06-14T13:09:34;16.30;;;15.60;;
1054;SDS011;516;51.482;7.120;2023-06-14T13:15:22;17.00;;;16.03;;
1054;SDS011;516;51.482;7.120;2023-06-14T13:21:10;17.53;;;16.37;;
1054;SDS011;516;51.482;7.120;2023-06-14T13:26:57;17.00;;;15.77;;
1054;SDS011;516;51.482;7.120;2023-06-14T13:32:46;16.77;;;15.87;;
1054;SDS011;516;51.482;7.120;2023-06-14T13:38:17;15.83;;;14.97;;
1054;SDS011;516;51.482;7.120;2023-06-14T13:44:05;16.17;;;15.37;;
1054;SDS011;516;51.482;7.120;2023-06-14T13:49:53;16.20;;;15.40;;
1054;SDS011;516;51.482;7.120;2023-06-14T13:55:40;15.60;;;15.00;;
1054;SDS011;516;51.482;7.120;2023-06-14T14:01:28;16.43;;;15.70;;
1054;SDS011;516;51.482;7.120;2023-06-14T14:07:16;16.33;;;15.63;;
1054;SDS011;516;51.482;7.120;2023-06-14T14:13:05;16.17;;;15.50;;
1054;SDS011;516;51.482;7.120;2023-06-14T14:18:52;16.00;;;15.20;;
1054;SDS011;516;51.482;7.120;2023-06-14T14:24:41;16.80;;;15.97;;
1054;SDS011;516;51.482;7.120;2023-06-14T14:30:29;16.77;;;15.60;;
1054;SDS011;516;51.482;7.120;2023-06-14T14:36:16;16.57;;;15.87;;
1054;SDS011;516;51.482;7.120;2023-06-14T14:48:48;17.10;;;15.90;;
1054;SDS011;516;51.482;7.120;2023-06-14T14:54:36;15.40;;;14.70;;
1054;SDS011;516;51.482;7.120;2023-06-14T15:00:24;16.60;;;15.80;;
1054;SDS011;516;51.482;7.120;2023-06-14T15:06:12;16.80;;;16.10;;
1054;SDS011;516;51.482;7.120;2023-06-14T15:12:00;16.80;;;16.00;;
1054;SDS011;516;51.482;7.120;2023-06-14T15:17:48;16.47;;;15.77;;
1054;SDS011;516;51.482;7.120;2023-06-14T15:23:35;17.27;;;16.47;;
1054;SDS011;516;51.482;7.120;2023-06-14T15:29:23;16.47;;;15.77;;
1054;SDS011;516;51.482;7.120;2023-06-14T15:35:11;17.17;;;16.27;;
1054;SDS011;516;51.482;7.120;2023-06-14T15:41:01;16.40;;;15.80;;
1054;SDS011;516;51.482;7.120;2023-06-14T15:46:49;16.70;;;16.00;;
1054;SDS011;516;51.482;7.120;2023-06-14T15:52:37;17.03;;;16.33;;
1054;SDS011;516;51.482;7.120;2023-06-14T15:58:24;17.73;;;16.70;;
1054;SDS011;516;51.482;7.120;2023-06-14T16:04:12;17.40;;;16.60;;
1054;SDS011;516;51.482;7.120;2023-06-14T16:09:59;17.67;;;16.97;;
1054;SDS011;516;51.482;7.120;2023-06-14T16:15:47;16.97;;;16.17;;
1054;SDS011;516;51.482;7.120;2023-06-14T16:21:36;17.37;;;15.97;;
1054;SDS011;516;51.482;7.120;2023-06-14T16:27:24;18.10;;;17.20;;
1054;SDS011;516;51.482;7.120;2023-06-14T16:33:12;17.97;;;16.90;;
1054;SDS011;516;51.482;7.120;2023-06-14T16:38:59;17.33;;;16.50;;
1054;SDS011;516;51.482;7.120;2023-06-14T16:44:22;17.33;;;16.53;;
1054;SDS011;516;51.482;7.120;2023-06-14T16:50:09;18.90;;;17.90;;
1054;SDS011;516;51.482;7.120;2023-06-14T16:55:57;17.27;;;16.40;;
1054;SDS011;516;51.482;7.120;2023-06-14T17:01:45;18.60;;;17.80;;
1054;SDS011;516;51.482;7.120;2023-06-14T17:07:33;17.73;;;17.03;;
1054;SDS011;516;51.482;7.120;2023-06-14T17:13:21;17.63;;;16.83;;
1054;SDS011;516;51.482;7.120;2023-06-14T17:19:08;17.67;;;16.77;;
1054;SDS011;516;51.482;7.120;2023-06-14T17:24:56;18.10;;;17.00;;
1054;SDS011;516;51.482;7.120;2023-06-14T17:30:44;18.10;;;17.30;;
1054;SDS011;516;51.482;7.120;2023-06-14T17:36:31;19.10;;;18.20;;
1054;SDS011;516;51.482;7.120;2023-06-14T17:52:13;18.73;;;17.83;;
1054;SDS011;516;51.482;7.120;2023-06-14T17:58:02;19.50;;;18.60;;
1054;SDS011;516;51.482;7.120;2023-06-14T18:03:50;19.20;;;18.40;;
1054;SDS011;516;51.482;7.120;2023-06-14T18:09:38;18.43;;;17.43;;
1054;SDS011;516;51.482;7.120;2023-06-14T18:15:26;17.97;;;17.10;;
1054;SDS011;516;51.482;7.120;2023-06-14T18:21:14;17.50;;;16.70;;
1054;SDS011;516;51.482;7.120;2023-06-14T18:27:02;18.93;;;18.00;;
1054;SDS011;516;51.482;7.120;2023-06-14T18:32:51;17.27;;;16.57;;
1054;SDS011;516;51.482;7.120;2023-06-14T18:38:38;16.83;;;16.03;;
1054;SDS011;516;51.482;7.120;2023-06-14T18:44:22;18.10;;;17.40;;
1054;SDS011;516;51.482;7.120;2023-06-14T18:50:09;18.00;;;16.90;;
1054;SDS011;516;51.482;7.120;2023-06-14T18:55:57;17.67;;;16.87;;
1054;SDS011;516;51.482;7.120;2023-06-14T19:01:45;18.40;;;17.07;;
1054;SDS011;516;51.482;7.120;2023-06-14T19:07:33;18.20;;;17.30;;
1054;SDS011;516;51.482;7.120;2023-06-14T19:13:20;16.97;;;16.17;;
1054;SDS011;516;51.482;7.120;2023-06-14T19:19:08;17.73;;;17.03;;
1054;SDS011;516;51.482;7.120;2023-06-14T19:24:56;18.57;;;17.50;;
1054;SDS011;516;51.482;7.120;2023-06-14T19:30:44;17.77;;;16.97;;
1054;SDS011;516;51.482;7.120;2023-06-14T19:36:12;18.33;;;17.47;;
1054;SDS011;516;51.482;7.120;2023-06-14T19:52:09;17.70;;;16.90;;
1054;SDS011;516;51.482;7.120;2023-06-14T19:57:57;18.30;;;17.50;;
1054;SDS011;516;51.482;7.120;2023-06-14T20:03:45;18.90;;;17.90;;
1054;SDS011;516;51.482;7.120;2023-06-14T20:15:32;17.00;;;16.20;;
1054;SDS011;516;51.482;7.120;2023-06-14T20:17:58;17.83;;;16.93;;
1054;SDS011;516;51.482;7.120;2023-06-14T20:23:47;18.20;;;17.30;;
1054;SDS011;516;51.482;7.120;2023-06-14T20:29:34;17.40;;;16.60;;
1054;SDS011;516;51.482;7.120;2023-06-14T20:35:23;17.53;;;16.63;;
1054;SDS011;516;51.482;7.120;2023-06-14T20:41:11;17.27;;;16.53;;
1054;SDS011;516;51.482;7.120;2023-06-14T20:46:59;18.93;;;17.93;;
1054;SDS011;516;51.482;7.120;2023-06-14T20:52:47;18.40;;;17.30;;
1054;SDS011;516;51.482;7.120;2023-06-14T20:58:35;17.23;;;16.53;;
1054;SDS011;516;51.482;7.120;2023-06-14T21:04:24;18.63;;;17.67;;
1054;SDS011;516;51.482;7.120;2023-06-14T21:10:12;17.43;;;16.57;;
1054;SDS011;516;51.482;7.120;2023-06-14T21:16:08;17.33;;;16.50;;
1054;SDS011;516;51.482;7.120;2023-06-14T21:21:56;17.50;;;16.60;;
1054;SDS011;516;51.482;7.120;2023-06-14T21:27:44;18.80;;;17.93;;
1054;SDS011;516;51.482;7.120;2023-06-14T21:33:31;17.47;;;16.57;;
1054;SDS011;516;51.482;7.120;2023-06-14T21:39:20;18.57;;;17.67;;
1054;SDS011;516;51.482;7.120;2023-06-14T21:45:07;17.77;;;16.97;;
1054;SDS011;516;51.482;7.120;2023-06-14T21:50:57;18.40;;;17.30;;
1054;SDS011;516;51.482;7.120;2023-06-14T21:56:45;17.23;;;16.10;;
1054;SDS011;516;51.482;7.120;2023-06-14T22:02:33;17.80;;;16.83;;
1054;SDS011;516;51.482;7.120;2023-06-14T22:08:23;18.00;;;17.20;;
1054;SDS011;516;51.482;7.120;2023-06-14T22:17:37;17.10;;;16.30;;
1054;SDS011;516;51.482;7.120;2023-06-14T22:23:28;17.00;;;16.00;;
1054;SDS011;516;51.482;7.120;2023-06-14T22:29:36;17.30;;;16.40;;
1054;SDS011;516;51.482;7.120;2023-06-14T22:35:23;16.50;;;15.70;;
1054;SDS011;516;51.482;7.120;2023-06-14T22:41:11;17.30;;;16.30;;
1054;SDS011;516;51.482;7.120;2023-06-14T22:47:00;17.23;;;16.10;;
1054;SDS011;516;51.482;7.120;2023-06-14T22:52:48;17.73;;;16.63;;
1054;SDS011;516;51.482;7.120;2023-06-14T22:58:37;15.90;;;15.20;;
1054;SDS011;516;51.482;7.120;2023-06-14T23:04:26;17.10;;;16.10;;
1054;SDS011;516;51.482;7.120;2023-06-14T23:10:14;16.10;;;15.30;;
1054;SDS011;516;51.482;7.120;2023-06-14T23:16:04;16.27;;;15.47;;
1054;SDS011;516;51.482;7.120;2023-06-14T23:25:12;17.60;;;16.23;;
1054;SDS011;516;51.482;7.120;2023-06-14T23:31:01;17.30;;;16.33;;
1054;SDS011;516;51.482;7.120;2023-06-14T23:36:54;17.10;;;15.93;;
1054;SDS011;516;51.482;7.120;2023-06-14T23:42:43;16.37;;;15.40;;
1054;SDS011;516;51.482;7.120;2023-06-14T23:48:31;16.20;;;15.27;;
1054;SDS011;516;51.482;7.120;2023-06-14T23:54:19;14.80;;;14.10;;
